Time;durP1;ratioP1;P1;durP2;ratioP2;P2;SDS_P1;SDS_P2;PMS_P1;PMS_P2;Temp;Humidity;BMP_temperature;BMP_pressure;BME280_temperature;BME280_humidity;BME280_pressure;Samples;Min_cycle;Max_cycle;Signal;HPM_P1;HPM_P2
2023/06/02 00:02:11;;;;;;;7.97;3.53;;;;;;;16.28;51.72;96539.09;4994319;28;20047;-78
2023/06/02 00:04:38;;;;;;;5.82;3.75;;;;;;;16.22;51.62;96539.97;4994510;28;20080;-78
2023/06/02 00:07:07;;;;;;;6.50;3.70;;;;;;;16.18;51.66;96544.06;4994497;28;20072;-78
2023/06/02 00:09:38;;;;;;;6.55;3.47;;;;;;;16.12;51.93;96545.75;4994643;28;20100;-78
2023/06/02 00:12:07;;;;;;;5.13;3.65;;;;;;;16.04;51.83;96538.94;4994518;28;20057;-78
2023/06/02 00:14:37;;;;;;;4.35;3.53;;;;;;;16.00;52.02;96547.50;4994944;28;20085;-78
2023/06/02 00:17:06;;;;;;;5.63;3.65;;;;;;;15.96;52.07;96541.06;4994291;28;20054;-79
2023/06/02 00:19:33;;;;;;;5.05;3.55;;;;;;;15.97;52.87;96532.16;4993757;28;20061;-78
2023/06/02 00:22:03;;;;;;;10.95;3.38;;;;;;;15.97;51.70;96540.84;4995126;28;20062;-78
2023/06/02 00:24:31;;;;;;;5.95;4.18;;;;;;;15.91;51.64;96539.06;4993828;28;20050;-78
2023/06/02 00:26:58;;;;;;;5.47;3.55;;;;;;;15.83;51.74;96534.91;4993583;28;20049;-78
2023/06/02 00:29:26;;;;;;;5.47;3.88;;;;;;;15.76;52.16;96539.41;4993717;28;20121;-78
2023/06/02 00:31:55;;;;;;;6.53;4.43;;;;;;;15.73;52.25;96542.47;4993480;28;20145;-78
2023/06/02 00:34:22;;;;;;;5.30;4.28;;;;;;;15.68;52.36;96544.94;4993367;28;20056;-78
2023/06/02 00:36:50;;;;;;;4.40;3.78;;;;;;;15.62;52.35;96540.53;4993070;28;20117;-78
2023/06/02 00:39:18;;;;;;;6.95;4.07;;;;;;;15.57;52.09;96541.16;4993266;28;20054;-78
2023/06/02 00:41:46;;;;;;;5.28;3.63;;;;;;;15.52;52.47;96543.63;4993356;28;20065;-78
2023/06/02 00:44:14;;;;;;;7.55;4.18;;;;;;;15.46;52.10;96547.13;4993462;28;20081;-78
2023/06/02 00:46:42;;;;;;;5.72;3.58;;;;;;;15.39;52.02;96541.09;4993243;28;20138;-78
2023/06/02 00:49:11;;;;;;;6.43;4.07;;;;;;;15.32;52.06;96540.34;4993410;28;20089;-78
2023/06/02 00:51:40;;;;;;;5.70;3.60;;;;;;;15.25;51.95;96543.81;4993049;28;20434;-78
2023/06/02 00:54:09;;;;;;;5.70;4.18;;;;;;;15.21;51.92;96540.00;4993250;28;20074;-78
2023/06/02 00:56:39;;;;;;;7.63;4.50;;;;;;;15.20;52.13;96545.47;4992679;28;20050;-78
2023/06/02 00:59:07;;;;;;;6.90;3.90;;;;;;;15.15;52.25;96540.88;4993300;28;20137;-78
2023/06/02 01:01:35;;;;;;;10.23;4.40;;;;;;;15.11;52.41;96544.94;4993092;28;20101;-78
2023/06/02 01:04:03;;;;;;;6.07;4.40;;;;;;;15.08;52.54;96545.34;4992967;28;20124;-78
2023/06/02 01:06:36;;;;;;;7.35;4.05;;;;;;;15.07;52.93;96538.47;4992860;28;20054;-78
2023/06/02 01:09:06;;;;;;;6.72;3.63;;;;;;;15.06;53.17;96541.31;4995506;28;20058;-77
2023/06/02 01:11:34;;;;;;;8.15;4.00;;;;;;;15.02;52.64;96538.28;5009465;28;20081;-77
2023/06/02 01:14:02;;;;;;;6.72;3.40;;;;;;;14.99;52.84;96533.47;5008568;28;20046;-78
2023/06/02 01:16:32;;;;;;;4.25;3.63;;;;;;;14.94;52.52;96533.31;5010635;28;20080;-79
2023/06/02 01:19:01;;;;;;;5.63;3.90;;;;;;;14.90;52.60;96532.13;5001942;28;20434;-78
2023/06/02 01:21:37;;;;;;;6.18;4.28;;;;;;;14.88;52.95;96531.53;4997707;28;20050;-78
2023/06/02 01:24:06;;;;;;;7.88;4.38;;;;;;;14.89;52.83;96530.50;4993963;28;20510;-78
2023/06/02 01:26:35;;;;;;;5.53;4.07;;;;;;;14.88;52.79;96540.19;4992940;28;20578;-77
2023/06/02 01:29:02;;;;;;;5.45;4.22;;;;;;;14.86;52.99;96536.19;4993115;28;20061;-78
2023/06/02 01:31:35;;;;;;;6.78;3.88;;;;;;;14.78;53.30;96534.59;4992695;28;20054;-77
2023/06/02 01:34:14;;;;;;;5.18;4.10;;;;;;;14.73;53.61;96532.59;4992834;28;20065;-77
2023/06/02 01:36:43;;;;;;;11.68;4.13;;;;;;;14.69;53.70;96535.84;4992847;28;20116;-78
2023/06/02 01:39:13;;;;;;;9.52;4.00;;;;;;;14.67;53.84;96532.63;4992668;28;20050;-78
2023/06/02 01:41:45;;;;;;;6.35;4.45;;;;;;;14.66;53.92;96531.03;4992723;28;20058;-78
2023/06/02 01:44:13;;;;;;;9.75;5.18;;;;;;;14.65;53.91;96530.22;4992953;28;20058;-78
2023/06/02 01:46:41;;;;;;;7.75;4.80;;;;;;;14.61;53.89;96532.44;4992263;28;20502;-78
2023/06/02 01:49:13;;;;;;;6.72;4.72;;;;;;;14.58;54.38;96529.44;4992685;28;20050;-78
2023/06/02 01:51:41;;;;;;;6.28;4.30;;;;;;;14.57;54.04;96530.44;4992715;28;20046;-78
2023/06/02 01:54:09;;;;;;;14.20;4.30;;;;;;;14.53;54.03;96527.41;4992386;28;20101;-78
2023/06/02 01:56:38;;;;;;;8.23;4.80;;;;;;;14.50;54.23;96534.91;4992146;28;20467;-78
2023/06/02 01:59:05;;;;;;;5.80;4.40;;;;;;;14.47;54.12;96535.31;4992542;28;20082;-78
2023/06/02 02:01:33;;;;;;;5.90;4.63;;;;;;;14.42;54.36;96533.31;4992357;28;20112;-78
2023/06/02 02:04:01;;;;;;;5.15;4.18;;;;;;;14.37;54.55;96528.69;4992522;28;20053;-78
2023/06/02 02:06:30;;;;;;;6.70;4.65;;;;;;;14.36;54.64;96528.88;4991872;28;20058;-78
2023/06/02 02:08:57;;;;;;;6.72;4.43;;;;;;;14.34;54.27;96529.09;4994186;28;20051;-79
2023/06/02 02:11:26;;;;;;;7.22;5.03;;;;;;;14.31;54.43;96524.25;4996130;28;20101;-78
2023/06/02 02:13:55;;;;;;;6.60;4.50;;;;;;;14.33;54.69;96522.22;4997192;28;20046;-78
2023/06/02 02:16:23;;;;;;;5.93;4.85;;;;;;;14.33;54.34;96514.34;4995590;28;20085;-77
2023/06/02 02:18:52;;;;;;;7.63;4.80;;;;;;;14.30;54.57;96522.66;4995854;28;20089;-79
2023/06/02 02:21:20;;;;;;;7.38;5.00;;;;;;;14.29;54.60;96521.03;4996004;28;20054;-79
2023/06/02 02:23:48;;;;;;;9.95;4.65;;;;;;;14.27;55.04;96524.88;4995732;28;20061;-78
2023/06/02 02:26:16;;;;;;;6.95;4.80;;;;;;;14.21;55.17;96524.69;4995442;28;20097;-79
2023/06/02 02:28:43;;;;;;;5.80;4.35;;;;;;;14.17;55.31;96533.19;4995278;28;20053;-79
2023/06/02 02:31:13;;;;;;;7.07;4.72;;;;;;;14.14;55.52;96530.97;4995373;28;20406;-79
2023/06/02 02:33:40;;;;;;;7.40;4.97;;;;;;;14.08;55.29;96529.97;4995534;28;20054;-78
2023/06/02 02:36:08;;;;;;;6.43;4.63;;;;;;;14.02;55.53;96536.84;4995365;28;20054;-78
2023/06/02 02:38:36;;;;;;;6.93;4.75;;;;;;;13.97;55.74;96534.03;4995382;28;20046;-79
2023/06/02 02:41:03;;;;;;;7.78;4.65;;;;;;;13.93;55.71;96532.03;4995087;28;20050;-79
2023/06/02 02:43:31;;;;;;;7.20;4.78;;;;;;;13.91;55.99;96534.03;4995400;28;20057;-78
2023/06/02 02:45:59;;;;;;;10.20;5.18;;;;;;;13.87;56.11;96531.00;4994898;28;20137;-78
2023/06/02 02:48:28;;;;;;;6.80;5.03;;;;;;;13.83;56.42;96540.28;4994705;28;20046;-78
2023/06/02 02:50:56;;;;;;;9.57;5.03;;;;;;;13.80;56.58;96538.88;4994940;28;20129;-78
2023/06/02 02:53:24;;;;;;;9.32;5.35;;;;;;;13.74;56.84;96544.94;4994756;28;20073;-79
2023/06/02 02:55:52;;;;;;;8.20;5.45;;;;;;;13.76;57.83;96542.13;4994816;28;20426;-79
2023/06/02 02:58:19;;;;;;;6.25;4.47;;;;;;;13.89;58.43;96543.94;4994628;28;20514;-78
2023/06/02 03:00:47;;;;;;;7.90;4.93;;;;;;;13.97;58.40;96552.41;4994085;28;20081;-78
2023/06/02 03:03:15;;;;;;;7.85;4.68;;;;;;;13.96;58.16;96553.38;4994347;28;20473;-79
2023/06/02 03:05:45;;;;;;;7.38;4.72;;;;;;;13.91;58.02;96557.66;4994419;28;20054;-77
2023/06/02 03:08:15;;;;;;;7.18;5.47;;;;;;;13.87;57.72;96561.69;4994461;28;20097;-78
2023/06/02 03:10:43;;;;;;;9.20;4.97;;;;;;;13.81;57.96;96564.09;4994509;28;20090;-78
2023/06/02 03:13:10;;;;;;;7.18;5.18;;;;;;;13.84;58.53;96560.28;4994537;28;20486;-78
2023/06/02 03:15:38;;;;;;;5.10;4.60;;;;;;;13.97;59.45;96562.06;4994242;28;20050;-78
2023/06/02 03:18:06;;;;;;;8.07;5.18;;;;;;;14.13;58.86;96558.22;4994565;28;20047;-78
2023/06/02 03:20:36;;;;;;;7.57;4.88;;;;;;;14.30;58.34;96559.38;4994692;28;20054;-78
2023/06/02 03:23:06;;;;;;;5.72;4.90;;;;;;;14.46;57.82;96567.81;4994353;28;20565;-79
2023/06/02 03:25:34;;;;;;;9.20;5.13;;;;;;;14.42;57.04;96557.72;4994429;28;20062;-78
2023/06/02 03:28:02;;;;;;;7.65;4.78;;;;;;;14.32;57.63;96562.63;4993255;28;20043;-78
2023/06/02 03:30:30;;;;;;;9.82;5.57;;;;;;;14.24;57.44;96560.19;4992673;28;20058;-78
2023/06/02 03:32:57;;;;;;;7.07;5.38;;;;;;;14.17;57.95;96562.03;4994160;28;20101;-78
2023/06/02 03:35:25;;;;;;;10.98;5.00;;;;;;;14.14;58.35;96565.84;4994212;28;20046;-78
2023/06/02 03:37:53;;;;;;;6.35;4.35;;;;;;;14.18;58.65;96567.06;4993038;28;20054;-78
2023/06/02 03:40:22;;;;;;;5.53;4.45;;;;;;;14.29;58.81;96577.94;4992405;28;20142;-78
2023/06/02 03:42:49;;;;;;;7.95;4.72;;;;;;;14.39;59.00;96571.25;4992716;28;20081;-78
2023/06/02 03:45:17;;;;;;;5.15;4.00;;;;;;;14.49;58.50;96572.66;4992131;28;20129;-78
2023/06/02 03:47:45;;;;;;;5.72;4.00;;;;;;;14.54;58.32;96578.06;4992356;28;20054;-78
2023/06/02 03:50:12;;;;;;;6.13;4.63;;;;;;;14.61;57.99;96578.91;4993625;28;20062;-78
2023/06/02 03:52:40;;;;;;;6.47;4.90;;;;;;;14.59;57.50;96573.06;4993917;28;20054;-77
2023/06/02 03:55:09;;;;;;;7.03;4.57;;;;;;;14.58;58.10;96577.50;4992529;28;20070;-79
2023/06/02 03:57:38;;;;;;;8.02;5.47;;;;;;;14.59;57.64;96584.34;4993506;28;20051;-78
2023/06/02 04:00:10;;;;;;;6.55;5.15;;;;;;;14.60;57.03;96582.53;4993343;28;20109;-77
2023/06/02 04:02:38;;;;;;;11.20;5.70;;;;;;;14.53;56.76;96571.22;4993132;28;20497;-77
2023/06/02 04:05:06;;;;;;;12.57;5.05;;;;;;;14.47;56.75;96574.66;4992708;28;20138;-78
2023/06/02 04:07:34;;;;;;;8.35;5.70;;;;;;;14.39;56.44;96568.63;4993082;28;20055;-79
2023/06/02 04:10:03;;;;;;;8.65;5.00;;;;;;;14.31;56.82;96568.84;5003368;28;20073;-79
2023/06/02 04:12:31;;;;;;;12.10;5.40;;;;;;;14.29;57.12;96575.31;5007914;28;20054;-78
2023/06/02 04:15:01;;;;;;;7.20;5.38;;;;;;;14.30;56.87;96584.78;4997393;28;20104;-79
2023/06/02 04:17:28;;;;;;;9.32;6.00;;;;;;;14.29;57.03;96593.69;4994190;28;20564;-78
2023/06/02 04:19:56;;;;;;;9.60;5.53;;;;;;;14.24;56.96;96591.69;4993824;28;20112;-78
2023/06/02 04:22:24;;;;;;;11.27;5.43;;;;;;;14.18;57.17;96592.50;4993909;28;20050;-78
2023/06/02 04:24:51;;;;;;;8.40;5.20;;;;;;;14.13;57.30;96594.94;4993287;28;20050;-78
2023/06/02 04:27:19;;;;;;;9.27;6.10;;;;;;;14.09;57.47;96604.22;4993528;28;20050;-78
2023/06/02 04:29:47;;;;;;;9.05;5.57;;;;;;;14.08;57.52;96599.97;4993727;28;20082;-78
2023/06/02 04:32:16;;;;;;;6.68;5.47;;;;;;;14.05;57.23;96592.53;4993076;28;20050;-78
2023/06/02 04:34:43;;;;;;;10.50;5.68;;;;;;;13.95;57.57;96599.00;4992814;28;20061;-78
2023/06/02 04:37:11;;;;;;;8.80;5.57;;;;;;;13.88;57.57;96598.16;4993412;28;20141;-79
2023/06/02 04:39:39;;;;;;;13.07;5.95;;;;;;;13.84;57.89;96602.22;4993325;28;20056;-78
2023/06/02 04:42:07;;;;;;;10.82;6.60;;;;;;;13.83;58.05;96605.03;4993292;28;20050;-78
2023/06/02 04:44:35;;;;;;;8.55;6.18;;;;;;;13.82;57.96;96604.25;4993005;28;20485;-78
2023/06/02 04:47:02;;;;;;;10.50;5.15;;;;;;;13.91;58.13;96602.22;4993014;28;20055;-78
2023/06/02 04:49:31;;;;;;;10.70;5.65;;;;;;;13.96;57.83;96603.22;4993456;28;20109;-79
2023/06/02 04:51:59;;;;;;;7.90;5.38;;;;;;;13.99;57.88;96599.38;4994196;28;20096;-78
2023/06/02 04:54:26;;;;;;;8.93;6.07;;;;;;;14.00;57.49;96601.81;4993158;28;20101;-78
2023/06/02 04:56:56;;;;;;;10.45;5.70;;;;;;;13.98;57.58;96598.56;4992735;28;20054;-78
2023/06/02 04:59:23;;;;;;;11.57;5.97;;;;;;;13.96;57.82;96595.34;4992946;28;20054;-78
2023/06/02 05:01:51;;;;;;;10.60;5.63;;;;;;;13.94;57.80;96597.38;4993043;28;20054;-78
2023/06/02 05:04:19;;;;;;;10.45;6.78;;;;;;;13.93;58.01;96594.97;4993064;28;20133;-78
2023/06/02 05:06:48;;;;;;;11.52;7.00;;;;;;;13.91;58.30;96603.03;4992520;28;20046;-78
2023/06/02 05:09:16;;;;;;;15.18;6.68;;;;;;;13.88;58.69;96606.03;4992679;28;20163;-78
2023/06/02 05:11:44;;;;;;;10.52;6.47;;;;;;;13.88;58.85;96613.91;4993013;28;20046;-78
2023/06/02 05:14:11;;;;;;;9.57;6.47;;;;;;;13.91;58.89;96607.47;4992405;28;20069;-78
2023/06/02 05:16:43;;;;;;;10.23;7.10;;;;;;;13.94;58.69;96607.84;4992506;28;20082;-78
2023/06/02 05:19:11;;;;;;;10.13;6.90;;;;;;;14.00;58.77;96611.50;4993064;28;20121;-78
2023/06/02 05:21:38;;;;;;;7.93;6.13;;;;;;;14.08;59.07;96607.84;4992993;28;20053;-78
2023/06/02 05:24:08;;;;;;;19.08;7.60;;;;;;;14.18;58.59;96613.47;4992870;28;20477;-78
2023/06/02 05:26:35;;;;;;;10.70;7.53;;;;;;;14.26;58.61;96608.03;4993379;28;20046;-77
2023/06/02 05:29:03;;;;;;;10.88;7.07;;;;;;;14.32;58.51;96607.22;4991729;28;20047;-77
2023/06/02 05:31:30;;;;;;;7.85;6.07;;;;;;;14.34;58.77;96605.19;4974017;28;20054;-78
2023/06/02 05:33:59;;;;;;;9.35;6.43;;;;;;;14.35;58.93;96604.16;4973487;28;20047;-78
2023/06/02 05:36:26;;;;;;;7.82;5.75;;;;;;;14.36;59.32;96616.28;4973203;28;20051;-78
2023/06/02 05:38:54;;;;;;;8.57;6.25;;;;;;;14.47;59.05;96616.66;4977208;28;20054;-77
2023/06/02 05:41:24;;;;;;;9.55;6.85;;;;;;;14.57;59.34;96617.06;4973366;28;20106;-76
2023/06/02 05:43:52;;;;;;;10.23;6.78;;;;;;;14.58;59.27;96610.81;4974043;28;20074;-76
2023/06/02 05:46:19;;;;;;;12.18;7.65;;;;;;;14.60;59.32;96611.41;4978453;28;20046;-75
2023/06/02 05:48:47;;;;;;;9.23;7.60;;;;;;;14.59;59.44;96607.97;4995964;28;20056;-75
2023/06/02 05:51:15;;;;;;;9.57;7.18;;;;;;;14.60;59.86;96614.03;4986360;28;20050;-75
2023/06/02 05:53:42;;;;;;;13.00;8.32;;;;;;;14.58;60.09;96602.94;5000321;28;20431;-76
2023/06/02 05:56:10;;;;;;;13.93;7.78;;;;;;;14.58;60.18;96613.44;4996428;28;20047;-75
2023/06/02 05:58:39;;;;;;;9.93;7.80;;;;;;;14.57;60.74;96612.63;4979908;28;20051;-75
2023/06/02 06:01:09;;;;;;;13.80;8.55;;;;;;;14.61;60.63;96611.19;4993108;28;20080;-76
2023/06/02 06:03:36;;;;;;;12.25;8.27;;;;;;;14.65;60.92;96608.97;4994927;28;20063;-75
2023/06/02 06:06:04;;;;;;;11.60;7.82;;;;;;;14.72;60.78;96606.34;4990084;28;20105;-76
2023/06/02 06:08:33;;;;;;;10.75;7.88;;;;;;;14.77;60.97;96612.56;4987535;28;20046;-75
2023/06/02 06:11:00;;;;;;;10.93;7.57;;;;;;;14.82;60.60;96610.13;4985287;28;20133;-76
2023/06/02 06:13:28;;;;;;;11.75;9.05;;;;;;;14.86;60.95;96613.13;4987133;28;20499;-75
2023/06/02 06:15:57;;;;;;;13.10;8.18;;;;;;;14.90;61.09;96614.34;4994963;28;20065;-75
2023/06/02 06:18:25;;;;;;;10.52;6.93;;;;;;;14.99;61.07;96614.91;4993458;28;20050;-76
2023/06/02 06:20:52;;;;;;;8.52;7.30;;;;;;;15.09;60.73;96615.25;4985302;28;20093;-76
2023/06/02 06:23:20;;;;;;;13.20;9.27;;;;;;;15.14;60.71;96615.44;4976510;28;20061;-77
2023/06/02 06:25:48;;;;;;;11.35;7.15;;;;;;;15.18;60.82;96614.00;4994133;28;20084;-78
2023/06/02 06:28:15;;;;;;;15.27;9.25;;;;;;;15.26;60.18;96615.56;4995414;28;20089;-76
2023/06/02 06:30:45;;;;;;;14.68;8.68;;;;;;;15.34;60.60;96617.94;4994773;28;20046;-77
2023/06/02 06:33:14;;;;;;;10.90;7.65;;;;;;;15.50;59.83;96610.56;4995387;28;20050;-77
2023/06/02 06:35:41;;;;;;;11.40;8.23;;;;;;;15.60;59.60;96606.47;4994314;28;20101;-77
2023/06/02 06:38:09;;;;;;;12.57;8.60;;;;;;;15.67;59.74;96609.03;4994653;28;20050;-77
2023/06/02 06:40:37;;;;;;;14.05;8.98;;;;;;;15.75;59.23;96621.16;4995234;28;20046;-77
2023/06/02 06:43:04;;;;;;;11.18;8.32;;;;;;;15.76;59.10;96614.88;4978622;28;20051;-75
2023/06/02 06:45:49;;;;;;;12.80;9.10;;;;;;;15.76;59.10;96617.50;4994052;28;20465;-74
2023/06/02 06:48:18;;;;;;;10.23;8.38;;;;;;;15.79;59.49;96617.09;4994710;28;20576;-74
2023/06/02 06:50:48;;;;;;;13.77;9.13;;;;;;;15.84;59.54;96620.69;4995092;28;20426;-74
2023/06/02 06:53:15;;;;;;;22.65;9.80;;;;;;;15.91;59.60;96625.88;4994919;28;20051;-74
2023/06/02 06:55:43;;;;;;;11.07;7.93;;;;;;;15.98;59.28;96629.28;4994047;28;20146;-74
2023/06/02 06:58:11;;;;;;;11.75;8.13;;;;;;;16.04;59.32;96623.13;4994396;28;20418;-75
2023/06/02 07:00:39;;;;;;;11.50;7.97;;;;;;;16.12;59.19;96629.16;4994821;28;20089;-79
2023/06/02 07:03:06;;;;;;;13.57;9.13;;;;;;;16.20;58.95;96628.88;5010819;28;20034;-76
2023/06/02 07:05:36;;;;;;;11.35;7.97;;;;;;;16.28;58.93;96634.66;5015424;28;20054;-74
2023/06/02 07:08:03;;;;;;;11.70;7.82;;;;;;;16.37;58.61;96629.94;5011482;28;20054;-75
2023/06/02 07:10:31;;;;;;;14.13;9.15;;;;;;;16.44;58.44;96635.94;5014410;28;20042;-75
2023/06/02 07:12:59;;;;;;;12.80;8.77;;;;;;;16.53;58.35;96635.66;5013042;28;20077;-75
2023/06/02 07:15:26;;;;;;;10.30;8.18;;;;;;;16.61;58.70;96640.63;5010807;28;20050;-77
2023/06/02 07:17:54;;;;;;;10.55;8.27;;;;;;;16.68;58.01;96638.72;4985284;28;20102;-75
2023/06/02 07:20:21;;;;;;;13.32;8.73;;;;;;;16.74;58.18;96632.59;4993514;28;20081;-75
2023/06/02 07:22:50;;;;;;;12.43;8.63;;;;;;;16.83;57.81;96641.03;4994530;28;20042;-75
2023/06/02 07:25:18;;;;;;;14.05;8.98;;;;;;;16.93;57.78;96635.25;4993477;28;20046;-75
2023/06/02 07:27:46;;;;;;;9.48;8.18;;;;;;;16.98;57.70;96628.28;4987530;28;20050;-74
2023/06/02 07:30:14;;;;;;;9.98;8.57;;;;;;;17.04;57.54;96632.66;5008567;28;20046;-75
2023/06/02 07:32:41;;;;;;;11.18;8.00;;;;;;;17.19;57.67;96631.50;5011758;28;20064;-76
2023/06/02 07:35:09;;;;;;;13.45;8.18;;;;;;;17.30;57.06;96628.91;5006636;28;20073;-75
2023/06/02 07:37:37;;;;;;;12.05;8.57;;;;;;;17.42;56.93;96638.69;4994004;28;20101;-76
2023/06/02 07:42:58;;;;;;;12.10;7.88;;;;;;;17.62;56.35;96633.13;5035825;28;20571;-83
2023/06/02 07:45:26;;;;;;;8.80;7.20;;;;;;;17.71;56.21;96627.31;5038214;28;20049;-83
2023/06/02 07:47:54;;;;;;;11.18;7.82;;;;;;;17.85;56.22;96632.41;5010418;28;20057;-83
2023/06/02 07:50:22;;;;;;;10.95;8.63;;;;;;;17.93;55.56;96637.34;5019472;28;20628;-84
2023/06/02 07:52:50;;;;;;;10.57;7.88;;;;;;;18.03;55.81;96637.59;5019290;28;20030;-84
2023/06/02 07:55:17;;;;;;;13.82;8.68;;;;;;;18.15;55.78;96637.59;5018164;28;20104;-83
2023/06/02 07:57:45;;;;;;;13.98;7.90;;;;;;;18.24;55.74;96633.59;5018092;28;20054;-85
2023/06/02 08:00:17;;;;;;;11.65;7.75;;;;;;;18.35;55.07;96631.97;5007658;28;20461;-83
2023/06/02 08:02:46;;;;;;;9.50;7.95;;;;;;;18.44;55.02;96630.59;5017556;28;20104;-84
2023/06/02 08:05:14;;;;;;;11.70;8.18;;;;;;;18.57;54.75;96634.03;5017368;28;20046;-84
2023/06/02 08:07:42;;;;;;;11.10;7.53;;;;;;;18.67;54.47;96629.78;5017215;28;20061;-85
2023/06/02 08:10:11;;;;;;;9.77;7.45;;;;;;;18.76;54.14;96632.88;5018018;28;20045;-83
2023/06/02 08:12:39;;;;;;;9.40;7.63;;;;;;;18.85;54.13;96631.50;5017561;28;20042;-84
2023/06/02 08:15:08;;;;;;;8.02;6.80;;;;;;;18.95;53.70;96636.16;5016702;28;20054;-84
2023/06/02 08:17:37;;;;;;;9.07;7.95;;;;;;;19.03;53.73;96635.00;5016973;28;20053;-84
2023/06/02 08:20:07;;;;;;;9.95;7.45;;;;;;;19.11;53.44;96630.16;5017252;28;20065;-83
2023/06/02 08:22:36;;;;;;;10.93;7.28;;;;;;;19.22;53.36;96631.16;5018394;28;20528;-84
2023/06/02 08:25:04;;;;;;;11.02;7.40;;;;;;;19.34;53.54;96629.25;5016740;28;20516;-84
2023/06/02 08:27:32;;;;;;;8.98;7.13;;;;;;;19.47;53.19;96627.38;5008758;28;20050;-83
2023/06/02 08:30:00;;;;;;;10.30;7.22;;;;;;;19.59;52.95;96630.78;5008903;28;20073;-83
2023/06/02 08:32:27;;;;;;;9.82;6.68;;;;;;;19.72;52.45;96635.78;5017254;28;20107;-84
2023/06/02 08:35:01;;;;;;;11.05;7.90;;;;;;;19.82;52.27;96629.84;5016398;28;20050;-83
2023/06/02 08:37:32;;;;;;;12.10;7.28;;;;;;;19.93;51.54;96623.66;5018725;28;20083;-83
2023/06/02 08:40:00;;;;;;;11.40;8.07;;;;;;;20.02;51.09;96629.38;5017500;28;20073;-84
2023/06/02 08:42:28;;;;;;;9.45;7.78;;;;;;;20.07;50.85;96632.13;5015827;28;20053;-83
2023/06/02 08:44:55;;;;;;;11.15;7.82;;;;;;;20.13;50.82;96625.03;5000555;28;20046;-84
2023/06/02 08:47:25;;;;;;;11.93;7.50;;;;;;;20.23;50.83;96624.41;5015347;28;20077;-83
2023/06/02 08:49:53;;;;;;;10.50;6.60;;;;;;;20.36;50.64;96621.41;5015138;28;20148;-83
2023/06/02 08:52:23;;;;;;;10.88;6.93;;;;;;;20.49;50.02;96628.22;5015526;28;20481;-82
2023/06/02 08:54:51;;;;;;;8.65;7.28;;;;;;;20.53;49.76;96632.78;5015480;28;20045;-83
2023/06/02 08:57:21;;;;;;;10.35;7.10;;;;;;;20.54;48.77;96637.03;5015074;28;20046;-83
2023/06/02 08:59:50;;;;;;;12.32;7.32;;;;;;;20.61;48.81;96630.78;5014712;28;20042;-83
2023/06/02 09:02:18;;;;;;;8.02;6.35;;;;;;;20.69;49.17;96635.66;4997614;28;20686;-83
2023/06/02 09:04:46;;;;;;;9.57;7.05;;;;;;;20.78;48.42;96634.19;5019822;28;20058;-83
2023/06/02 09:07:20;;;;;;;11.98;7.00;;;;;;;20.88;47.88;96642.28;5015282;28;20277;-83
2023/06/02 09:09:52;;;;;;;7.82;6.50;;;;;;;20.93;46.94;96639.69;4998470;28;20054;-83
2023/06/02 09:12:22;;;;;;;9.15;7.13;;;;;;;20.96;47.13;96636.53;5015095;28;20116;-83
2023/06/02 09:15:07;;;;;;;8.75;6.88;;;;;;;21.01;46.85;96632.34;5015738;28;20050;-83
2023/06/02 09:17:37;;;;;;;8.27;6.28;;;;;;;21.04;45.88;96634.50;5016027;28;20045;-84
2023/06/02 09:20:10;;;;;;;10.93;6.97;;;;;;;21.11;46.59;96632.47;5021310;28;20058;-83
2023/06/02 09:22:53;;;;;;;8.90;6.63;;;;;;;21.20;46.29;96637.06;5021293;28;20505;-83
2023/06/02 09:25:25;;;;;;;7.50;6.18;;;;;;;21.28;46.79;96635.84;5020544;28;20148;-84
2023/06/02 09:27:54;;;;;;;9.57;7.20;;;;;;;21.32;46.17;96634.28;5017233;28;20101;-82
2023/06/02 09:30:22;;;;;;;9.23;7.03;;;;;;;21.36;46.52;96635.41;5022116;28;20096;-83
2023/06/02 09:32:54;;;;;;;10.18;7.38;;;;;;;21.46;45.55;96628.63;5021005;28;20073;-84
2023/06/02 09:35:40;;;;;;;8.35;6.07;;;;;;;21.50;45.62;96637.69;5020237;28;20053;-84
2023/06/02 09:38:10;;;;;;;10.00;6.68;;;;;;;21.59;44.93;96636.97;5014255;28;20437;-84
2023/06/02 09:40:40;;;;;;;9.63;5.80;;;;;;;21.66;45.07;96630.66;5018326;28;20049;-84
2023/06/02 09:43:10;;;;;;;11.73;7.32;;;;;;;21.73;44.55;96636.56;5018478;28;20041;-83
2023/06/02 09:45:58;;;;;;;7.10;5.90;;;;;;;21.82;44.15;96635.03;5018048;28;20054;-84
2023/06/02 09:48:27;;;;;;;9.07;5.70;;;;;;;21.91;44.09;96638.03;5018059;28;20157;-84
2023/06/02 09:50:56;;;;;;;8.63;6.18;;;;;;;21.98;44.05;96639.44;5017764;28;20054;-84
2023/06/02 09:53:25;;;;;;;6.75;6.10;;;;;;;22.06;43.58;96634.69;5017277;28;20510;-84
2023/06/02 09:55:54;;;;;;;8.63;6.53;;;;;;;22.13;43.33;96646.72;4998496;28;20085;-84
2023/06/02 09:58:22;;;;;;;10.02;5.82;;;;;;;22.18;42.50;96633.47;4998349;28;20108;-84
2023/06/02 10:00:50;;;;;;;6.40;5.80;;;;;;;22.20;42.07;96635.88;4998279;28;20046;-84
2023/06/02 10:03:18;;;;;;;7.30;6.20;;;;;;;22.19;42.17;96640.41;5007234;28;20041;-84
2023/06/02 10:05:58;;;;;;;8.48;6.82;;;;;;;22.19;42.07;96643.06;5016514;28;20532;-84
2023/06/02 10:08:34;;;;;;;6.80;5.47;;;;;;;22.24;41.74;96646.81;5016247;28;20049;-85
2023/06/02 10:11:10;;;;;;;7.60;5.85;;;;;;;22.28;41.16;96640.75;5015280;28;20517;-81
2023/06/02 10:13:55;;;;;;;8.13;5.15;;;;;;;22.31;40.87;96639.44;5018602;28;20105;-83
2023/06/02 10:16:38;;;;;;;7.40;5.32;;;;;;;22.35;40.92;96638.69;5007602;28;20070;-83
2023/06/02 10:19:41;;;;;;;7.45;4.85;;;;;;;22.40;40.54;96636.03;5017401;28;20494;-83
2023/06/02 10:22:31;;;;;;;;;;;;;;;22.47;40.68;96640.34;5017352;28;20092;-81
2023/06/02 10:25:13;;;;;;;6.15;4.95;;;;;;;22.56;40.70;96638.78;5016226;28;20338;-82
2023/06/02 10:27:43;;;;;;;6.32;4.90;;;;;;;22.62;39.91;96633.25;5019864;28;20077;-83
2023/06/02 10:30:11;;;;;;;6.75;5.20;;;;;;;22.68;38.96;96622.66;5035041;28;20036;-82
2023/06/02 10:32:44;;;;;;;4.90;4.40;;;;;;;22.74;37.68;96632.22;5026948;28;20037;-83
2023/06/02 10:35:12;;;;;;;10.57;5.72;;;;;;;22.77;40.13;96635.19;5019272;28;20055;-83
2023/06/02 10:37:39;;;;;;;8.88;5.20;;;;;;;22.80;39.17;96625.88;5014957;28;20081;-83
2023/06/02 10:40:10;;;;;;;6.05;5.03;;;;;;;22.87;38.00;96628.31;5012362;28;20074;-83
2023/06/02 10:42:38;;;;;;;8.02;4.07;;;;;;;22.91;37.55;96619.53;5007298;28;20061;-83
2023/06/02 10:45:41;;;;;;;8.95;4.82;;;;;;;22.96;37.35;96624.91;5008716;28;20046;-83
2023/06/02 10:48:40;;;;;;;5.75;4.40;;;;;;;22.98;37.83;96625.44;5016513;28;20069;-83
2023/06/02 10:51:08;;;;;;;6.68;4.90;;;;;;;23.00;37.15;96612.72;5015733;28;20077;-83
2023/06/02 10:54:11;;;;;;;6.28;4.80;;;;;;;23.09;37.33;96625.50;5005044;28;20046;-82
2023/06/02 10:56:40;;;;;;;6.35;4.30;;;;;;;23.13;37.40;96622.03;4998926;28;20058;-83
2023/06/02 10:59:08;;;;;;;8.10;4.40;;;;;;;23.18;36.97;96623.94;5013774;28;20061;-86
2023/06/02 11:01:48;;;;;;;7.35;4.70;;;;;;;23.21;36.58;96618.88;5016557;28;20544;-86
2023/06/02 11:04:34;;;;;;;4.63;3.85;;;;;;;23.33;36.63;96616.00;5016828;28;20418;-86
2023/06/02 11:07:26;;;;;;;7.43;4.68;;;;;;;23.45;36.21;96615.75;4998203;28;20054;-86
2023/06/02 11:09:56;;;;;;;7.07;4.80;;;;;;;23.50;36.14;96605.09;5005195;28;20046;-87
2023/06/02 11:13:03;;;;;;;5.75;4.85;;;;;;;23.53;36.83;96603.78;5000521;28;20054;-86
2023/06/02 11:15:30;;;;;;;7.55;4.63;;;;;;;23.56;36.11;96608.59;4997558;28;20050;-84
2023/06/02 11:18:00;;;;;;;4.95;4.25;;;;;;;23.63;36.29;96614.44;5004734;28;20128;-84
2023/06/02 11:20:35;;;;;;;9.27;4.80;;;;;;;23.74;36.84;96615.25;5016642;28;20569;-84
2023/06/02 11:23:04;;;;;;;5.07;4.40;;;;;;;23.78;36.67;96603.81;5014968;28;20068;-84
2023/06/02 11:25:32;;;;;;;7.18;4.18;;;;;;;23.83;37.17;96606.50;5017163;28;20088;-84
2023/06/02 11:28:00;;;;;;;5.10;4.38;;;;;;;23.85;36.59;96607.03;5015905;28;20112;-83
2023/06/02 11:30:28;;;;;;;6.47;4.90;;;;;;;23.90;36.22;96600.91;5016977;28;20077;-84
2023/06/02 11:32:56;;;;;;;8.57;4.85;;;;;;;23.95;36.06;96600.13;5017824;28;20077;-86
2023/06/02 11:35:27;;;;;;;6.45;3.90;;;;;;;23.99;36.25;96606.50;5016713;28;20076;-87
2023/06/02 11:38:04;;;;;;;6.00;4.82;;;;;;;23.97;34.84;96600.66;5018867;28;20068;-85
2023/06/02 11:40:34;;;;;;;4.50;3.80;;;;;;;23.93;35.47;96604.91;4996890;28;20058;-84
2023/06/02 11:43:03;;;;;;;7.20;3.75;;;;;;;23.94;34.98;96598.50;4996852;28;20132;-85
2023/06/02 11:45:31;;;;;;;7.88;3.90;;;;;;;23.99;34.62;96599.31;4997248;28;20050;-84
2023/06/02 11:48:01;;;;;;;6.13;4.13;;;;;;;24.09;34.28;96608.34;4996452;28;20043;-82